createdAt,value
2022-12-23T00:01:02.496Z,99815.09
2022-12-23T00:06:15.025Z,99824.75
2022-12-23T00:11:19.044Z,99823.16
2022-12-23T00:16:20.733Z,99830.78
2022-12-23T00:21:23.172Z,99829.81
2022-12-23T00:26:27.091Z,99827.81
2022-12-23T00:31:28.791Z,99827.81
2022-12-23T00:36:30.770Z,99840.69
2022-12-23T00:41:32.561Z,99845.53
2022-12-23T00:46:34.097Z,99848.56
2022-12-23T00:51:35.840Z,99844.13
2022-12-23T00:56:37.623Z,99848.34
2022-12-23T01:01:39.314Z,99852.78
2022-12-23T01:06:40.998Z,99859.44
2022-12-23T01:11:42.709Z,99862.66
2022-12-23T01:16:44.396Z,99881.22
2022-12-23T01:21:46.001Z,99885.41
2022-12-23T01:26:47.556Z,99896.13
2022-12-23T01:31:49.173Z,99895.31
2022-12-23T01:36:50.775Z,99887.84
2022-12-23T01:41:52.460Z,99896.91
2022-12-23T01:46:54.023Z,99904.97
2022-12-23T01:51:55.652Z,99918.88
2022-12-23T01:56:58.327Z,99923.72
2022-12-23T02:02:00.697Z,99926.34
2022-12-23T02:07:03.195Z,99929.97
2022-12-23T02:12:28.725Z,99932.19
2022-12-23T02:17:57.895Z,99927.75
2022-12-23T02:23:37.166Z,99937.22
2022-12-23T02:29:06.663Z,99930.38
2022-12-23T02:34:16.502Z,99949.94
2022-12-23T02:39:31.483Z,99954.56
2022-12-23T02:44:50.480Z,99955.16
2022-12-23T02:49:57.072Z,99952.94
2022-12-23T02:55:08.397Z,99965.00
2022-12-23T03:00:11.232Z,99960.72
2022-12-23T03:05:34.434Z,99964.97
2022-12-23T03:10:54.775Z,99979.47
2022-12-23T03:16:08.174Z,99990.63
2022-12-23T03:21:17.491Z,99999.94
2022-12-23T03:26:23.585Z,100021.47
2022-12-23T03:31:29.485Z,100004.94
2022-12-23T03:36:47.411Z,100011.59
2022-12-23T03:42:13.275Z,100014.56
2022-12-23T03:47:33.968Z,100013.97
2022-12-23T03:52:40.513Z,100019.81
2022-12-23T03:57:47.337Z,100017.16
2022-12-23T04:03:10.578Z,100009.91
2022-12-23T04:08:34.738Z,100002.44
2022-12-23T04:13:36.502Z,99999.44
2022-12-23T04:18:38.059Z,100003.03
2022-12-23T04:23:39.691Z,100002.63
2022-12-23T04:28:41.232Z,100004.69
2022-12-23T04:33:42.860Z,100010.38
2022-12-23T04:38:44.443Z,100005.72
2022-12-23T04:43:52.549Z,100015.63
2022-12-23T04:48:54.757Z,100028.16
2022-12-23T04:53:56.322Z,100023.09
2022-12-23T04:58:57.959Z,100012.19
2022-12-23T05:03:59.601Z,100022.47
2022-12-23T05:09:01.128Z,100021.88
2022-12-23T05:14:02.786Z,100028.72
2022-12-23T05:19:04.662Z,100025.69
2022-12-23T05:24:06.523Z,100018.41
2022-12-23T05:29:08.094Z,100013.34
2022-12-23T05:34:09.666Z,100025.06
2022-12-23T05:39:11.289Z,100028.09
2022-12-23T05:44:13.029Z,100019.66
2022-12-23T05:49:14.667Z,100031.34
2022-12-23T05:54:16.230Z,100030.16
2022-12-23T05:59:17.868Z,100062.03
2022-12-23T06:04:19.453Z,100054.13
2022-12-23T06:09:21.083Z,100061.81
2022-12-23T06:14:28.319Z,100071.50
2022-12-23T06:19:30.481Z,100079.38
2022-12-23T06:24:32.111Z,100064.03
2022-12-23T06:29:33.652Z,100064.84
2022-12-23T06:34:35.169Z,100065.81
2022-12-23T06:39:36.728Z,100052.91
2022-12-23T06:44:38.298Z,100050.31
2022-12-23T06:49:39.833Z,100048.94
2022-12-23T06:54:41.351Z,100055.22
2022-12-23T06:59:42.904Z,100057.63
2022-12-23T07:04:44.421Z,100050.19
2022-12-23T07:09:46.007Z,100058.66
2022-12-23T07:14:47.544Z,100070.13
2022-12-23T07:19:49.101Z,100106.06
2022-12-23T07:24:50.844Z,100103.81
2022-12-23T07:29:52.381Z,100112.06
2022-12-23T07:34:54.089Z,100107.00
2022-12-23T07:39:55.766Z,100105.38
2022-12-23T07:44:57.357Z,100106.38
2022-12-23T07:49:58.935Z,100109.41
2022-12-23T07:55:00.772Z,100118.50
2022-12-23T08:00:02.655Z,100113.25
2022-12-23T08:05:14.296Z,100123.94
2022-12-23T08:10:16.067Z,100112.88
2022-12-23T08:15:17.680Z,100108.44
2022-12-23T08:20:19.254Z,100108.47
2022-12-23T08:25:20.920Z,100106.44
2022-12-23T08:30:22.800Z,100095.38
2022-12-23T08:35:24.426Z,100085.69
2022-12-23T08:40:26.119Z,100085.47
2022-12-23T08:45:27.799Z,100100.78
2022-12-23T08:50:29.545Z,100099.19
2022-12-23T08:55:31.165Z,100097.97
2022-12-23T09:00:33.012Z,100084.84
2022-12-23T09:05:39.940Z,100091.50
2022-12-23T09:10:44.829Z,100114.50
2022-12-23T09:15:46.617Z,100113.72
2022-12-23T09:20:48.384Z,100108.88
2022-12-23T09:25:50.140Z,100090.91
2022-12-23T09:30:52.027Z,100083.66
2022-12-23T09:35:54.098Z,100080.63
2022-12-23T09:41:17.119Z,100074.56
2022-12-23T09:46:23.958Z,100062.88
2022-12-23T09:51:26.083Z,100053.22
2022-12-23T09:56:45.085Z,100044.13
2022-12-23T10:02:04.357Z,100041.28
2022-12-23T10:07:06.140Z,100035.22
2022-12-23T10:12:28.192Z,100030.56
2022-12-23T10:17:40.925Z,100028.19
2022-12-23T10:22:44.656Z,100003.16
2022-12-23T10:28:02.075Z,99988.63
2022-12-23T10:33:22.562Z,99981.59
2022-12-23T10:38:36.430Z,99972.53
2022-12-23T10:43:57.523Z,99957.41
2022-12-23T10:49:30.261Z,99947.69
2022-12-23T10:54:36.897Z,99933.34
2022-12-23T10:59:38.387Z,99931.38
2022-12-23T11:04:42.343Z,99929.13
2022-12-23T11:09:48.156Z,99932.19
2022-12-23T11:14:56.457Z,99919.25
2022-12-23T11:20:10.389Z,99919.88
2022-12-23T11:25:29.212Z,99909.19
2022-12-23T11:30:35.231Z,99891.47
2022-12-23T11:35:37.197Z,99879.59
2022-12-23T11:40:45.867Z,99881.19
2022-12-23T11:45:50.620Z,99866.88
2022-12-23T11:51:09.419Z,99858.78
2022-12-23T11:56:26.059Z,99830.41
2022-12-23T12:01:30.677Z,99810.03
2022-12-23T12:06:33.650Z,99793.16
2022-12-23T12:11:39.846Z,99768.56
2022-12-23T12:16:47.421Z,99764.34
2022-12-23T12:21:54.647Z,99757.06
2022-12-23T12:27:02.441Z,99752.03
2022-12-23T12:32:07.581Z,99742.59
2022-12-23T12:37:41.279Z,99717.00
2022-12-23T12:42:49.019Z,99699.66
2022-12-23T12:48:25.193Z,99695.41
2022-12-23T12:53:30.504Z,99696.41
2022-12-23T12:58:32.121Z,99671.88
2022-12-23T13:03:46.880Z,99649.69
2022-12-23T13:09:13.009Z,99618.69
2022-12-23T13:14:32.892Z,99636.00
2022-12-23T13:20:20.168Z,99674.06
2022-12-23T13:26:11.416Z,99632.38
2022-12-23T13:31:59.162Z,99597.09
2022-12-23T13:37:06.398Z,99572.69
2022-12-23T13:42:15.454Z,99574.88
2022-12-23T13:48:05.563Z,99549.56
2022-12-23T13:53:33.300Z,99545.53
2022-12-23T13:58:35.647Z,99536.41
2022-12-23T14:03:39.481Z,99530.84
2022-12-23T14:08:42.920Z,99531.19
2022-12-23T14:13:50.549Z,99550.03
2022-12-23T14:19:23.115Z,99540.34
2022-12-23T14:24:50.168Z,99504.97
2022-12-23T14:30:10.640Z,99494.84
2022-12-23T14:35:47.535Z,99495.63
2022-12-23T14:40:51.035Z,99489.97
2022-12-23T14:45:53.609Z,99495.41
2022-12-23T14:51:01.666Z,99492.28
2022-12-23T14:56:15.461Z,99495.66
2022-12-23T15:01:40.418Z,99501.44
2022-12-23T15:06:46.728Z,99487.53
2022-12-23T15:11:48.498Z,99492.88
2022-12-23T15:16:50.453Z,99504.75
2022-12-23T15:22:15.368Z,99497.03
2022-12-23T15:27:27.760Z,99511.38
2022-12-23T15:32:30.045Z,99510.78
2022-12-23T15:37:32.775Z,99511.38
2022-12-23T15:42:34.441Z,99508.13
2022-12-23T15:47:38.855Z,99519.03
2022-12-23T15:52:42.947Z,99517.56
2022-12-23T15:57:50.457Z,99525.81
2022-12-23T16:03:04.070Z,99527.56
2022-12-23T16:08:16.498Z,99528.91
2022-12-23T16:13:20.081Z,99536.59
2022-12-23T16:18:27.115Z,99538.59
2022-12-23T16:23:31.219Z,99559.16
2022-12-23T16:28:44.975Z,99557.56
2022-12-23T16:33:58.132Z,99565.78
2022-12-23T16:39:05.165Z,99573.22
2022-12-23T16:44:06.740Z,99588.66
2022-12-23T16:49:17.248Z,99605.16
2022-12-23T16:54:20.130Z,99614.91
2022-12-23T16:59:21.642Z,99633.22
2022-12-23T17:04:23.222Z,99632.16
2022-12-23T17:09:24.757Z,99628.06
2022-12-23T17:14:27.536Z,99642.25
2022-12-23T17:19:29.721Z,99670.75
2022-12-23T17:24:31.403Z,99676.47
2022-12-23T17:29:33.020Z,99668.59
2022-12-23T17:34:34.568Z,99687.72
2022-12-23T17:39:36.153Z,99673.53
2022-12-23T17:44:38.034Z,99696.91
2022-12-23T17:49:39.559Z,99709.72
2022-12-23T17:54:41.568Z,99710.19
2022-12-23T17:59:47.717Z,99715.66
2022-12-23T18:04:50.511Z,99720.81
2022-12-23T18:09:52.891Z,99714.66
2022-12-23T18:14:55.291Z,99733.34
2022-12-23T18:19:57.039Z,99748.44
2022-12-23T18:25:01.637Z,99753.25
2022-12-23T18:30:03.768Z,99760.81
2022-12-23T18:35:18.880Z,99760.72
2022-12-23T18:40:21.058Z,99761.03
2022-12-23T18:45:40.339Z,99763.91
2022-12-23T18:50:43.615Z,99775.59
2022-12-23T18:55:45.251Z,99775.72
2022-12-23T19:00:48.295Z,99782.13
2022-12-23T19:05:51.374Z,99798.03
2022-12-23T19:10:53.733Z,99798.41
2022-12-23T19:15:55.484Z,99796.44
2022-12-23T19:20:57.127Z,99803.19
2022-12-23T19:25:58.841Z,99801.09
2022-12-23T19:31:00.595Z,99808.09
2022-12-23T19:36:02.396Z,99812.34
2022-12-23T19:41:04.196Z,99805.78
2022-12-23T19:46:08.497Z,99825.97
2022-12-23T19:51:14.039Z,99833.16
2022-12-23T19:56:17.580Z,99860.44
2022-12-23T20:01:24.676Z,99872.13
2022-12-23T20:06:28.019Z,99868.22
2022-12-23T20:11:39.292Z,99886.25
2022-12-23T20:16:41.362Z,99894.16
2022-12-23T20:21:43.908Z,99898.28
2022-12-23T20:26:48.768Z,99898.47
2022-12-23T20:31:50.679Z,99898.94
2022-12-23T20:36:52.579Z,99915.91
2022-12-23T20:41:54.264Z,99927.03
2022-12-23T20:46:56.183Z,99920.50
2022-12-23T20:52:00.484Z,99915.66
2022-12-23T20:57:02.819Z,99928.41
2022-12-23T21:02:04.547Z,99934.56
2022-12-23T21:07:06.565Z,99940.06
2022-12-23T21:12:08.307Z,99954.91
2022-12-23T21:17:09.979Z,99956.22
2022-12-23T21:22:11.729Z,99981.75
2022-12-23T21:27:13.601Z,99971.97
2022-12-23T21:32:15.215Z,99972.03
2022-12-23T21:37:16.856Z,99993.16
2022-12-23T21:42:18.561Z,100002.38
2022-12-23T21:47:20.196Z,100009.59
2022-12-23T21:52:21.857Z,100021.16
2022-12-23T21:57:23.551Z,100014.72
2022-12-23T22:02:25.210Z,100036.94
2022-12-23T22:07:26.765Z,100025.16
2022-12-23T22:12:28.330Z,100031.31
2022-12-23T22:17:29.888Z,100042.81
2022-12-23T22:22:31.428Z,100058.00
2022-12-23T22:27:32.983Z,100056.56
2022-12-23T22:32:39.036Z,100078.88
2022-12-23T22:37:43.897Z,100097.50
2022-12-23T22:42:45.492Z,100116.06
2022-12-23T22:47:47.191Z,100117.41
2022-12-23T22:52:48.840Z,100128.38
2022-12-23T22:57:50.500Z,100130.81
2022-12-23T23:02:51.993Z,100118.97
2022-12-23T23:07:53.630Z,100147.28
2022-12-23T23:12:55.185Z,100150.78
2022-12-23T23:17:56.737Z,100152.56
2022-12-23T23:22:58.407Z,100160.09
2022-12-23T23:28:00.340Z,100172.66
2022-12-23T23:33:01.943Z,100162.31
2022-12-23T23:38:03.645Z,100171.84
2022-12-23T23:43:05.276Z,100177.56
2022-12-23T23:48:06.898Z,100164.63
2022-12-23T23:53:12.697Z,100169.06
2022-12-23T23:58:14.250Z,100195.66
